sensor_id;sensor_type;location;lat;lon;timestamp;temperature;humidity
1766;DHT22;880;52.452;8.656;2023-05-07T00:02:08;12.00;99.90
1766;DHT22;880;52.452;8.656;2023-05-07T00:04:35;12.10;99.90
1766;DHT22;880;52.452;8.656;2023-05-07T00:07:04;12.10;99.90
1766;DHT22;880;52.452;8.656;2023-05-07T00:09:32;12.00;99.90
1766;DHT22;880;52.452;8.656;2023-05-07T00:11:59;12.00;99.90
1766;DHT22;880;52.452;8.656;2023-05-07T00:14:26;12.00;99.90
1766;DHT22;880;52.452;8.656;2023-05-07T00:16:53;12.00;99.90
1766;DHT22;880;52.452;8.656;2023-05-07T00:19:20;12.00;99.90
1766;DHT22;880;52.452;8.656;2023-05-07T00:21:47;11.90;99.90
1766;DHT22;880;52.452;8.656;2023-05-07T00:24:14;11.90;99.90
1766;DHT22;880;52.452;8.656;2023-05-07T00:26:41;11.80;99.90
1766;DHT22;880;52.452;8.656;2023-05-07T00:29:08;11.90;99.90
1766;DHT22;880;52.452;8.656;2023-05-07T00:31:35;11.90;99.90
1766;DHT22;880;52.452;8.656;2023-05-07T00:34:02;11.80;99.90
1766;DHT22;880;52.452;8.656;2023-05-07T00:36:29;11.80;99.90
1766;DHT22;880;52.452;8.656;2023-05-07T00:38:59;11.70;99.90
1766;DHT22;880;52.452;8.656;2023-05-07T00:41:26;11.80;99.90
1766;DHT22;880;52.452;8.656;2023-05-07T00:43:53;11.70;99.90
1766;DHT22;880;52.452;8.656;2023-05-07T00:46:21;11.70;99.90
1766;DHT22;880;52.452;8.656;2023-05-07T00:48:52;11.80;99.90
1766;DHT22;880;52.452;8.656;2023-05-07T00:51:19;11.80;99.90
1766;DHT22;880;52.452;8.656;2023-05-07T00:53:46;11.70;99.90
1766;DHT22;880;52.452;8.656;2023-05-07T00:56:14;11.80;99.90
1766;DHT22;880;52.452;8.656;2023-05-07T00:58:41;11.70;99.90
1766;DHT22;880;52.452;8.656;2023-05-07T01:01:08;11.70;99.90
1766;DHT22;880;52.452;8.656;2023-05-07T01:03:35;11.60;99.90
1766;DHT22;880;52.452;8.656;2023-05-07T01:06:05;11.70;99.90
1766;DHT22;880;52.452;8.656;2023-05-07T01:08:34;11.60;99.90
1766;DHT22;880;52.452;8.656;2023-05-07T01:11:02;11.70;99.90
1766;DHT22;880;52.452;8.656;2023-05-07T01:13:30;11.70;99.90
1766;DHT22;880;52.452;8.656;2023-05-07T01:15:58;11.60;99.90
1766;DHT22;880;52.452;8.656;2023-05-07T01:18:25;11.60;99.90
1766;DHT22;880;52.452;8.656;2023-05-07T01:20:54;11.60;99.90
1766;DHT22;880;52.452;8.656;2023-05-07T01:23:22;11.60;99.90
1766;DHT22;880;52.452;8.656;2023-05-07T01:25:53;11.60;99.90
1766;DHT22;880;52.452;8.656;2023-05-07T01:28:23;11.60;99.90
1766;DHT22;880;52.452;8.656;2023-05-07T01:30:56;11.60;99.90
1766;DHT22;880;52.452;8.656;2023-05-07T01:33:33;11.60;99.90
1766;DHT22;880;52.452;8.656;2023-05-07T01:36:03;11.60;99.90
1766;DHT22;880;52.452;8.656;2023-05-07T01:38:33;11.50;99.90
1766;DHT22;880;52.452;8.656;2023-05-07T01:41:01;11.60;99.90
1766;DHT22;880;52.452;8.656;2023-05-07T01:43:29;11.50;99.90
1766;DHT22;880;52.452;8.656;2023-05-07T01:45:57;11.40;99.90
1766;DHT22;880;52.452;8.656;2023-05-07T01:48:25;11.40;99.90
1766;DHT22;880;52.452;8.656;2023-05-07T01:50:53;11.40;99.90
1766;DHT22;880;52.452;8.656;2023-05-07T01:53:20;11.40;99.90
1766;DHT22;880;52.452;8.656;2023-05-07T01:55:47;11.30;99.90
1766;DHT22;880;52.452;8.656;2023-05-07T01:58:15;11.30;99.90
1766;DHT22;880;52.452;8.656;2023-05-07T02:00:42;11.30;99.90
1766;DHT22;880;52.452;8.656;2023-05-07T02:03:09;11.20;99.90
1766;DHT22;880;52.452;8.656;2023-05-07T02:05:54;11.20;99.90
1766;DHT22;880;52.452;8.656;2023-05-07T02:08:29;11.20;99.90
1766;DHT22;880;52.452;8.656;2023-05-07T02:10:57;11.30;99.90
1766;DHT22;880;52.452;8.656;2023-05-07T02:13:26;11.20;99.90
1766;DHT22;880;52.452;8.656;2023-05-07T02:15:55;11.30;99.90
1766;DHT22;880;52.452;8.656;2023-05-07T02:18:23;11.40;99.90
1766;DHT22;880;52.452;8.656;2023-05-07T02:20:50;11.40;99.90
1766;DHT22;880;52.452;8.656;2023-05-07T02:23:17;11.30;99.90
1766;DHT22;880;52.452;8.656;2023-05-07T02:25:44;11.20;99.90
1766;DHT22;880;52.452;8.656;2023-05-07T02:28:12;11.20;99.90
1766;DHT22;880;52.452;8.656;2023-05-07T02:30:48;11.20;99.90
1766;DHT22;880;52.452;8.656;2023-05-07T02:33:16;11.20;99.90
1766;DHT22;880;52.452;8.656;2023-05-07T02:35:43;11.20;99.90
1766;DHT22;880;52.452;8.656;2023-05-07T02:38:12;11.20;99.90
1766;DHT22;880;52.452;8.656;2023-05-07T02:40:40;11.20;99.90
1766;DHT22;880;52.452;8.656;2023-05-07T02:43:08;11.20;99.90
1766;DHT22;880;52.452;8.656;2023-05-07T02:45:36;11.20;99.90
1766;DHT22;880;52.452;8.656;2023-05-07T02:48:05;11.10;99.90
1766;DHT22;880;52.452;8.656;2023-05-07T02:50:33;10.90;99.90
1766;DHT22;880;52.452;8.656;2023-05-07T02:53:00;10.90;99.90
1766;DHT22;880;52.452;8.656;2023-05-07T02:55:27;10.80;99.90
1766;DHT22;880;52.452;8.656;2023-05-07T02:57:55;10.80;99.90
1766;DHT22;880;52.452;8.656;2023-05-07T03:00:24;10.80;99.90
1766;DHT22;880;52.452;8.656;2023-05-07T03:03:14;10.70;99.90
1766;DHT22;880;52.452;8.656;2023-05-07T03:05:41;10.70;99.90
1766;DHT22;880;52.452;8.656;2023-05-07T03:08:09;10.70;99.90
1766;DHT22;880;52.452;8.656;2023-05-07T03:10:37;10.70;99.90
1766;DHT22;880;52.452;8.656;2023-05-07T03:13:04;10.70;99.90
1766;DHT22;880;52.452;8.656;2023-05-07T03:15:31;10.70;99.90
1766;DHT22;880;52.452;8.656;2023-05-07T03:17:58;10.70;99.90
1766;DHT22;880;52.452;8.656;2023-05-07T03:20:25;10.70;99.90
1766;DHT22;880;52.452;8.656;2023-05-07T03:22:52;10.70;99.90
1766;DHT22;880;52.452;8.656;2023-05-07T03:25:19;10.70;99.90
1766;DHT22;880;52.452;8.656;2023-05-07T03:27:46;10.70;99.90
1766;DHT22;880;52.452;8.656;2023-05-07T03:30:16;10.70;99.90
1766;DHT22;880;52.452;8.656;2023-05-07T03:32:43;10.70;99.90
1766;DHT22;880;52.452;8.656;2023-05-07T03:35:11;10.60;99.90
1766;DHT22;880;52.452;8.656;2023-05-07T03:37:39;10.60;99.90
1766;DHT22;880;52.452;8.656;2023-05-07T03:40:08;10.60;99.90
1766;DHT22;880;52.452;8.656;2023-05-07T03:42:43;10.60;99.90
1766;DHT22;880;52.452;8.656;2023-05-07T03:45:11;10.50;99.90
1766;DHT22;880;52.452;8.656;2023-05-07T03:47:43;10.50;99.90
1766;DHT22;880;52.452;8.656;2023-05-07T03:50:14;10.50;99.90
1766;DHT22;880;52.452;8.656;2023-05-07T03:52:41;10.50;99.90
1766;DHT22;880;52.452;8.656;2023-05-07T03:55:09;10.50;99.90
1766;DHT22;880;52.452;8.656;2023-05-07T03:57:38;10.50;99.90
1766;DHT22;880;52.452;8.656;2023-05-07T04:00:06;10.60;99.90
1766;DHT22;880;52.452;8.656;2023-05-07T04:02:46;10.60;99.90
1766;DHT22;880;52.452;8.656;2023-05-07T04:05:15;10.60;99.90
1766;DHT22;880;52.452;8.656;2023-05-07T04:07:45;10.60;99.90
1766;DHT22;880;52.452;8.656;2023-05-07T04:10:16;10.50;99.90
1766;DHT22;880;52.452;8.656;2023-05-07T04:12:45;10.50;99.90
1766;DHT22;880;52.452;8.656;2023-05-07T04:15:17;10.50;99.90
1766;DHT22;880;52.452;8.656;2023-05-07T04:17:44;10.50;99.90
1766;DHT22;880;52.452;8.656;2023-05-07T04:20:15;10.50;99.90
1766;DHT22;880;52.452;8.656;2023-05-07T04:22:47;10.50;99.90
1766;DHT22;880;52.452;8.656;2023-05-07T04:25:15;10.40;99.90
1766;DHT22;880;52.452;8.656;2023-05-07T04:27:43;10.50;99.90
1766;DHT22;880;52.452;8.656;2023-05-07T04:30:12;10.50;99.90
1766;DHT22;880;52.452;8.656;2023-05-07T04:32:40;10.50;99.90
1766;DHT22;880;52.452;8.656;2023-05-07T04:35:07;10.50;99.90
1766;DHT22;880;52.452;8.656;2023-05-07T04:37:34;10.50;99.90
1766;DHT22;880;52.452;8.656;2023-05-07T04:40:03;10.50;99.90
1766;DHT22;880;52.452;8.656;2023-05-07T04:42:30;10.50;99.90
1766;DHT22;880;52.452;8.656;2023-05-07T04:45:01;10.50;99.90
1766;DHT22;880;52.452;8.656;2023-05-07T04:47:31;10.50;99.90
1766;DHT22;880;52.452;8.656;2023-05-07T04:50:00;10.50;99.90
1766;DHT22;880;52.452;8.656;2023-05-07T04:52:27;10.50;99.90
1766;DHT22;880;52.452;8.656;2023-05-07T04:54:54;10.60;99.90
1766;DHT22;880;52.452;8.656;2023-05-07T04:57:22;10.60;99.90
1766;DHT22;880;52.452;8.656;2023-05-07T04:59:48;10.60;99.90
1766;DHT22;880;52.452;8.656;2023-05-07T05:02:16;10.60;99.90
1766;DHT22;880;52.452;8.656;2023-05-07T05:04:46;10.60;99.90
1766;DHT22;880;52.452;8.656;2023-05-07T05:07:14;10.60;99.90
1766;DHT22;880;52.452;8.656;2023-05-07T05:09:41;10.60;99.90
1766;DHT22;880;52.452;8.656;2023-05-07T05:12:08;10.70;99.90
1766;DHT22;880;52.452;8.656;2023-05-07T05:14:37;10.70;99.90
1766;DHT22;880;52.452;8.656;2023-05-07T05:17:05;10.60;99.90
1766;DHT22;880;52.452;8.656;2023-05-07T05:19:32;10.70;99.90
1766;DHT22;880;52.452;8.656;2023-05-07T05:21:59;10.70;99.90
1766;DHT22;880;52.452;8.656;2023-05-07T05:24:27;10.70;99.90
1766;DHT22;880;52.452;8.656;2023-05-07T05:26:55;10.70;99.90
1766;DHT22;880;52.452;8.656;2023-05-07T05:29:22;10.70;99.90
1766;DHT22;880;52.452;8.656;2023-05-07T05:31:49;10.80;99.90
1766;DHT22;880;52.452;8.656;2023-05-07T05:34:17;10.80;99.90
1766;DHT22;880;52.452;8.656;2023-05-07T05:36:46;10.80;99.90
1766;DHT22;880;52.452;8.656;2023-05-07T05:39:14;10.80;99.90
1766;DHT22;880;52.452;8.656;2023-05-07T05:41:42;10.80;99.90
1766;DHT22;880;52.452;8.656;2023-05-07T05:44:09;10.80;99.90
1766;DHT22;880;52.452;8.656;2023-05-07T05:46:36;10.90;99.90
1766;DHT22;880;52.452;8.656;2023-05-07T05:49:03;10.90;99.90
1766;DHT22;880;52.452;8.656;2023-05-07T05:51:30;10.90;99.90
1766;DHT22;880;52.452;8.656;2023-05-07T05:53:57;10.90;99.90
1766;DHT22;880;52.452;8.656;2023-05-07T05:56:24;10.90;99.90
1766;DHT22;880;52.452;8.656;2023-05-07T05:58:52;10.90;99.90
1766;DHT22;880;52.452;8.656;2023-05-07T06:01:19;10.90;99.90
1766;DHT22;880;52.452;8.656;2023-05-07T06:03:48;10.90;99.90
1766;DHT22;880;52.452;8.656;2023-05-07T06:06:16;10.90;99.90
1766;DHT22;880;52.452;8.656;2023-05-07T06:08:44;11.00;99.90
1766;DHT22;880;52.452;8.656;2023-05-07T06:11:15;11.00;99.90
1766;DHT22;880;52.452;8.656;2023-05-07T06:13:44;11.00;99.90
1766;DHT22;880;52.452;8.656;2023-05-07T06:16:12;11.00;99.90
1766;DHT22;880;52.452;8.656;2023-05-07T06:18:39;11.00;99.90
1766;DHT22;880;52.452;8.656;2023-05-07T06:21:06;11.00;99.90
1766;DHT22;880;52.452;8.656;2023-05-07T06:23:34;11.10;99.90
1766;DHT22;880;52.452;8.656;2023-05-07T06:26:03;11.10;99.90
1766;DHT22;880;52.452;8.656;2023-05-07T06:28:36;11.10;99.90
1766;DHT22;880;52.452;8.656;2023-05-07T06:31:18;11.10;99.90
1766;DHT22;880;52.452;8.656;2023-05-07T06:33:56;11.00;99.90
1766;DHT22;880;52.452;8.656;2023-05-07T06:36:28;11.00;99.90
1766;DHT22;880;52.452;8.656;2023-05-07T06:38:58;11.00;99.90
1766;DHT22;880;52.452;8.656;2023-05-07T06:41:25;11.00;99.90
1766;DHT22;880;52.452;8.656;2023-05-07T06:43:54;11.00;99.90
1766;DHT22;880;52.452;8.656;2023-05-07T06:46:29;11.00;99.90
1766;DHT22;880;52.452;8.656;2023-05-07T06:48:57;11.00;99.90
1766;DHT22;880;52.452;8.656;2023-05-07T06:51:25;11.00;99.90
1766;DHT22;880;52.452;8.656;2023-05-07T06:53:53;11.00;99.90
1766;DHT22;880;52.452;8.656;2023-05-07T06:56:20;11.10;99.90
1766;DHT22;880;52.452;8.656;2023-05-07T06:58:47;11.10;99.90
1766;DHT22;880;52.452;8.656;2023-05-07T07:01:14;11.10;99.90
1766;DHT22;880;52.452;8.656;2023-05-07T07:03:43;11.10;99.90
1766;DHT22;880;52.452;8.656;2023-05-07T07:06:10;11.10;99.90
1766;DHT22;880;52.452;8.656;2023-05-07T07:08:37;11.10;99.90
1766;DHT22;880;52.452;8.656;2023-05-07T07:11:08;11.00;99.90
1766;DHT22;880;52.452;8.656;2023-05-07T07:13:35;11.10;99.90
1766;DHT22;880;52.452;8.656;2023-05-07T07:16:02;11.10;99.90
1766;DHT22;880;52.452;8.656;2023-05-07T07:18:29;11.20;99.90
1766;DHT22;880;52.452;8.656;2023-05-07T07:20:58;11.10;99.90
1766;DHT22;880;52.452;8.656;2023-05-07T07:23:26;11.20;99.90
1766;DHT22;880;52.452;8.656;2023-05-07T07:25:53;11.20;99.90
1766;DHT22;880;52.452;8.656;2023-05-07T07:28:21;11.30;99.90
1766;DHT22;880;52.452;8.656;2023-05-07T07:30:48;11.20;99.90
1766;DHT22;880;52.452;8.656;2023-05-07T07:33:16;11.20;99.90
1766;DHT22;880;52.452;8.656;2023-05-07T07:35:44;11.30;99.90
1766;DHT22;880;52.452;8.656;2023-05-07T07:38:10;11.40;99.90
1766;DHT22;880;52.452;8.656;2023-05-07T07:40:38;11.40;99.90
1766;DHT22;880;52.452;8.656;2023-05-07T07:43:07;11.40;99.90
1766;DHT22;880;52.452;8.656;2023-05-07T07:45:34;11.40;99.90
1766;DHT22;880;52.452;8.656;2023-05-07T07:48:01;11.40;99.90
1766;DHT22;880;52.452;8.656;2023-05-07T07:50:32;11.40;99.90
1766;DHT22;880;52.452;8.656;2023-05-07T07:53:12;11.40;99.90
1766;DHT22;880;52.452;8.656;2023-05-07T07:55:40;11.50;99.90
1766;DHT22;880;52.452;8.656;2023-05-07T07:58:09;11.50;99.90
1766;DHT22;880;52.452;8.656;2023-05-07T08:00:36;11.60;99.90
1766;DHT22;880;52.452;8.656;2023-05-07T08:03:03;11.60;99.90
1766;DHT22;880;52.452;8.656;2023-05-07T08:05:35;11.60;99.90
1766;DHT22;880;52.452;8.656;2023-05-07T08:08:04;11.60;99.90
1766;DHT22;880;52.452;8.656;2023-05-07T08:10:34;11.60;99.90
1766;DHT22;880;52.452;8.656;2023-05-07T08:13:07;11.70;99.90
1766;DHT22;880;52.452;8.656;2023-05-07T08:15:36;11.60;99.90
1766;DHT22;880;52.452;8.656;2023-05-07T08:18:03;11.70;99.90
1766;DHT22;880;52.452;8.656;2023-05-07T08:20:31;11.80;99.90
1766;DHT22;880;52.452;8.656;2023-05-07T08:22:59;11.80;99.90
1766;DHT22;880;52.452;8.656;2023-05-07T08:25:27;11.90;99.90
1766;DHT22;880;52.452;8.656;2023-05-07T08:27:54;11.90;99.90
1766;DHT22;880;52.452;8.656;2023-05-07T08:30:21;12.00;99.90
1766;DHT22;880;52.452;8.656;2023-05-07T08:32:50;12.10;99.90
1766;DHT22;880;52.452;8.656;2023-05-07T08:35:17;12.10;99.90
1766;DHT22;880;52.452;8.656;2023-05-07T08:37:44;12.10;99.90
1766;DHT22;880;52.452;8.656;2023-05-07T08:40:11;12.00;99.90
1766;DHT22;880;52.452;8.656;2023-05-07T08:42:42;12.10;99.90
1766;DHT22;880;52.452;8.656;2023-05-07T08:45:10;12.00;99.90
1766;DHT22;880;52.452;8.656;2023-05-07T08:47:47;12.00;99.90
1766;DHT22;880;52.452;8.656;2023-05-07T08:50:21;11.90;99.90
1766;DHT22;880;52.452;8.656;2023-05-07T08:52:49;11.90;99.90
1766;DHT22;880;52.452;8.656;2023-05-07T08:55:18;12.00;99.90
1766;DHT22;880;52.452;8.656;2023-05-07T08:57:46;12.00;99.90
1766;DHT22;880;52.452;8.656;2023-05-07T09:00:15;12.10;99.90
1766;DHT22;880;52.452;8.656;2023-05-07T09:02:46;12.10;99.90
1766;DHT22;880;52.452;8.656;2023-05-07T09:05:13;12.10;99.90
1766;DHT22;880;52.452;8.656;2023-05-07T09:07:40;12.00;99.90
1766;DHT22;880;52.452;8.656;2023-05-07T09:10:08;12.00;99.90
1766;DHT22;880;52.452;8.656;2023-05-07T09:12:40;12.00;99.90
1766;DHT22;880;52.452;8.656;2023-05-07T09:15:09;12.20;99.90
1766;DHT22;880;52.452;8.656;2023-05-07T09:17:37;12.20;99.90
1766;DHT22;880;52.452;8.656;2023-05-07T09:20:06;12.30;99.90
1766;DHT22;880;52.452;8.656;2023-05-07T09:22:37;12.40;99.90
1766;DHT22;880;52.452;8.656;2023-05-07T09:25:09;12.50;99.90
1766;DHT22;880;52.452;8.656;2023-05-07T09:27:38;12.60;99.90
1766;DHT22;880;52.452;8.656;2023-05-07T09:30:09;12.70;99.90
1766;DHT22;880;52.452;8.656;2023-05-07T09:32:36;12.90;99.90
1766;DHT22;880;52.452;8.656;2023-05-07T09:35:16;13.00;99.90
1766;DHT22;880;52.452;8.656;2023-05-07T09:37:49;13.20;99.90
1766;DHT22;880;52.452;8.656;2023-05-07T09:40:24;13.20;99.90
1766;DHT22;880;52.452;8.656;2023-05-07T09:42:53;13.20;99.90
1766;DHT22;880;52.452;8.656;2023-05-07T09:45:25;13.30;99.90
1766;DHT22;880;52.452;8.656;2023-05-07T09:47:55;13.30;99.90
1766;DHT22;880;52.452;8.656;2023-05-07T09:50:29;13.30;99.90
1766;DHT22;880;52.452;8.656;2023-05-07T09:53:00;13.40;99.90
1766;DHT22;880;52.452;8.656;2023-05-07T09:55:27;13.60;99.90
1766;DHT22;880;52.452;8.656;2023-05-07T09:57:55;13.80;99.90
1766;DHT22;880;52.452;8.656;2023-05-07T10:00:23;14.00;99.90
1766;DHT22;880;52.452;8.656;2023-05-07T10:03:01;14.30;99.90
1766;DHT22;880;52.452;8.656;2023-05-07T10:05:40;14.30;99.90
1766;DHT22;880;52.452;8.656;2023-05-07T10:08:08;14.50;99.90
1766;DHT22;880;52.452;8.656;2023-05-07T10:10:38;14.70;99.90
1766;DHT22;880;52.452;8.656;2023-05-07T10:13:08;14.70;99.90
1766;DHT22;880;52.452;8.656;2023-05-07T10:15:41;14.80;99.90
1766;DHT22;880;52.452;8.656;2023-05-07T10:18:09;15.00;99.90
1766;DHT22;880;52.452;8.656;2023-05-07T10:20:37;15.20;99.90
1766;DHT22;880;52.452;8.656;2023-05-07T10:23:08;15.20;99.90
1766;DHT22;880;52.452;8.656;2023-05-07T10:25:43;15.10;99.90
1766;DHT22;880;52.452;8.656;2023-05-07T10:28:18;15.20;99.90
1766;DHT22;880;52.452;8.656;2023-05-07T10:33:43;15.20;99.90
1766;DHT22;880;52.452;8.656;2023-05-07T10:36:12;15.50;99.90
1766;DHT22;880;52.452;8.656;2023-05-07T10:38:40;15.60;99.90
1766;DHT22;880;52.452;8.656;2023-05-07T10:41:08;15.80;99.90
1766;DHT22;880;52.452;8.656;2023-05-07T10:43:40;16.00;99.90
1766;DHT22;880;52.452;8.656;2023-05-07T10:46:16;16.00;99.90
1766;DHT22;880;52.452;8.656;2023-05-07T10:51:35;15.70;99.90
1766;DHT22;880;52.452;8.656;2023-05-07T10:54:20;15.80;99.90
1766;DHT22;880;52.452;8.656;2023-05-07T10:57:36;15.90;99.90
1766;DHT22;880;52.452;8.656;2023-05-07T11:03:07;16.30;99.90
1766;DHT22;880;52.452;8.656;2023-05-07T11:08:59;16.00;99.90
1766;DHT22;880;52.452;8.656;2023-05-07T11:11:46;15.90;99.90
1766;DHT22;880;52.452;8.656;2023-05-07T11:14:43;15.80;99.90
1766;DHT22;880;52.452;8.656;2023-05-07T11:17:16;15.80;99.90
1766;DHT22;880;52.452;8.656;2023-05-07T11:19:51;15.70;99.90
1766;DHT22;880;52.452;8.656;2023-05-07T11:25:07;15.80;99.90
1766;DHT22;880;52.452;8.656;2023-05-07T11:27:35;15.80;99.90
1766;DHT22;880;52.452;8.656;2023-05-07T11:30:03;15.80;99.90
1766;DHT22;880;52.452;8.656;2023-05-07T11:32:31;16.00;99.90
1766;DHT22;880;52.452;8.656;2023-05-07T11:35:00;16.30;99.90
1766;DHT22;880;52.452;8.656;2023-05-07T11:37:28;16.60;99.90
1766;DHT22;880;52.452;8.656;2023-05-07T11:40:04;16.70;99.90
1766;DHT22;880;52.452;8.656;2023-05-07T11:42:36;16.70;99.90
1766;DHT22;880;52.452;8.656;2023-05-07T11:45:08;16.70;99.90
1766;DHT22;880;52.452;8.656;2023-05-07T11:47:36;16.60;99.90
1766;DHT22;880;52.452;8.656;2023-05-07T11:50:06;16.70;99.90
1766;DHT22;880;52.452;8.656;2023-05-07T11:52:35;16.90;99.90
1766;DHT22;880;52.452;8.656;2023-05-07T11:55:02;17.00;99.90
1766;DHT22;880;52.452;8.656;2023-05-07T11:57:33;16.80;99.90
1766;DHT22;880;52.452;8.656;2023-05-07T12:00:02;16.70;99.90
1766;DHT22;880;52.452;8.656;2023-05-07T12:02:40;16.60;99.90
1766;DHT22;880;52.452;8.656;2023-05-07T12:05:08;16.40;99.90
1766;DHT22;880;52.452;8.656;2023-05-07T12:07:36;16.60;99.90
1766;DHT22;880;52.452;8.656;2023-05-07T12:10:05;16.80;99.90
1766;DHT22;880;52.452;8.656;2023-05-07T12:12:40;17.00;99.90
1766;DHT22;880;52.452;8.656;2023-05-07T12:15:09;17.00;99.90
1766;DHT22;880;52.452;8.656;2023-05-07T12:17:37;17.10;99.90
1766;DHT22;880;52.452;8.656;2023-05-07T12:20:05;17.00;99.90
1766;DHT22;880;52.452;8.656;2023-05-07T12:22:32;17.00;99.90
1766;DHT22;880;52.452;8.656;2023-05-07T12:24:59;17.00;99.90
1766;DHT22;880;52.452;8.656;2023-05-07T12:27:26;17.00;99.90
1766;DHT22;880;52.452;8.656;2023-05-07T12:29:54;17.10;99.90
1766;DHT22;880;52.452;8.656;2023-05-07T12:32:21;17.10;99.90
1766;DHT22;880;52.452;8.656;2023-05-07T12:34:51;17.10;99.90
1766;DHT22;880;52.452;8.656;2023-05-07T12:37:25;17.20;99.90
1766;DHT22;880;52.452;8.656;2023-05-07T12:40:05;17.10;99.90
1766;DHT22;880;52.452;8.656;2023-05-07T12:42:35;16.70;99.90
1766;DHT22;880;52.452;8.656;2023-05-07T12:45:15;16.70;99.90
1766;DHT22;880;52.452;8.656;2023-05-07T12:47:44;16.70;99.90
1766;DHT22;880;52.452;8.656;2023-05-07T12:50:13;16.90;99.90
1766;DHT22;880;52.452;8.656;2023-05-07T12:52:41;16.90;99.90
1766;DHT22;880;52.452;8.656;2023-05-07T12:55:13;17.00;99.90
1766;DHT22;880;52.452;8.656;2023-05-07T12:57:43;17.10;99.90
1766;DHT22;880;52.452;8.656;2023-05-07T13:00:13;17.00;99.90
1766;DHT22;880;52.452;8.656;2023-05-07T13:02:41;16.80;99.90
1766;DHT22;880;52.452;8.656;2023-05-07T13:05:12;16.80;99.90
1766;DHT22;880;52.452;8.656;2023-05-07T13:07:39;17.00;99.90
1766;DHT22;880;52.452;8.656;2023-05-07T13:10:07;17.10;99.90
1766;DHT22;880;52.452;8.656;2023-05-07T13:12:35;17.20;99.90
1766;DHT22;880;52.452;8.656;2023-05-07T13:15:02;17.10;99.90
1766;DHT22;880;52.452;8.656;2023-05-07T13:17:29;17.00;99.90
1766;DHT22;880;52.452;8.656;2023-05-07T13:19:58;16.80;99.90
1766;DHT22;880;52.452;8.656;2023-05-07T13:22:25;16.80;99.90
1766;DHT22;880;52.452;8.656;2023-05-07T13:24:52;16.90;99.90
1766;DHT22;880;52.452;8.656;2023-05-07T13:27:20;17.10;99.90
1766;DHT22;880;52.452;8.656;2023-05-07T13:29:47;17.10;99.90
1766;DHT22;880;52.452;8.656;2023-05-07T13:32:14;17.30;99.90
1766;DHT22;880;52.452;8.656;2023-05-07T13:34:41;17.30;99.90
1766;DHT22;880;52.452;8.656;2023-05-07T13:37:08;17.30;99.90
1766;DHT22;880;52.452;8.656;2023-05-07T13:39:37;17.30;99.90
1766;DHT22;880;52.452;8.656;2023-05-07T13:42:03;17.10;99.90
1766;DHT22;880;52.452;8.656;2023-05-07T13:44:30;16.80;99.90
1766;DHT22;880;52.452;8.656;2023-05-07T13:46:57;16.80;99.90
1766;DHT22;880;52.452;8.656;2023-05-07T13:49:24;16.90;99.90
1766;DHT22;880;52.452;8.656;2023-05-07T13:51:51;17.00;99.90
1766;DHT22;880;52.452;8.656;2023-05-07T13:54:18;17.00;99.90
1766;DHT22;880;52.452;8.656;2023-05-07T13:56:45;16.90;99.90
1766;DHT22;880;52.452;8.656;2023-05-07T13:59:12;16.90;99.90
1766;DHT22;880;52.452;8.656;2023-05-07T14:01:41;16.90;99.90
1766;DHT22;880;52.452;8.656;2023-05-07T14:04:08;17.10;99.90
1766;DHT22;880;52.452;8.656;2023-05-07T14:06:35;17.20;99.90
1766;DHT22;880;52.452;8.656;2023-05-07T14:09:02;17.20;99.90
1766;DHT22;880;52.452;8.656;2023-05-07T14:11:29;17.10;99.90
1766;DHT22;880;52.452;8.656;2023-05-07T14:13:57;17.00;99.90
1766;DHT22;880;52.452;8.656;2023-05-07T14:16:25;16.90;99.90
1766;DHT22;880;52.452;8.656;2023-05-07T14:18:51;16.60;99.90
1766;DHT22;880;52.452;8.656;2023-05-07T14:21:23;16.50;99.90
1766;DHT22;880;52.452;8.656;2023-05-07T14:23:50;16.30;99.90
1766;DHT22;880;52.452;8.656;2023-05-07T14:26:17;16.30;99.90
1766;DHT22;880;52.452;8.656;2023-05-07T14:28:44;16.30;99.90
1766;DHT22;880;52.452;8.656;2023-05-07T14:31:13;16.20;99.90
1766;DHT22;880;52.452;8.656;2023-05-07T14:33:40;16.20;99.90
1766;DHT22;880;52.452;8.656;2023-05-07T14:36:08;16.20;99.90
1766;DHT22;880;52.452;8.656;2023-05-07T14:38:35;16.10;99.90
1766;DHT22;880;52.452;8.656;2023-05-07T14:41:02;16.20;99.90
1766;DHT22;880;52.452;8.656;2023-05-07T14:43:28;16.30;99.90
1766;DHT22;880;52.452;8.656;2023-05-07T14:45:55;16.40;99.90
1766;DHT22;880;52.452;8.656;2023-05-07T14:48:23;16.50;99.90
1766;DHT22;880;52.452;8.656;2023-05-07T14:50:49;16.60;99.90
1766;DHT22;880;52.452;8.656;2023-05-07T14:53:16;16.50;99.90
1766;DHT22;880;52.452;8.656;2023-05-07T14:55:43;16.50;99.90
1766;DHT22;880;52.452;8.656;2023-05-07T14:58:11;16.60;99.90
1766;DHT22;880;52.452;8.656;2023-05-07T15:00:38;16.50;99.90
1766;DHT22;880;52.452;8.656;2023-05-07T15:03:07;16.50;99.90
1766;DHT22;880;52.452;8.656;2023-05-07T15:05:35;16.60;99.90
1766;DHT22;880;52.452;8.656;2023-05-07T15:08:03;16.60;99.90
1766;DHT22;880;52.452;8.656;2023-05-07T15:10:29;16.80;99.90
1766;DHT22;880;52.452;8.656;2023-05-07T15:12:56;16.90;99.90
1766;DHT22;880;52.452;8.656;2023-05-07T15:15:23;17.10;99.90
1766;DHT22;880;52.452;8.656;2023-05-07T15:17:52;17.10;99.90
1766;DHT22;880;52.452;8.656;2023-05-07T15:20:19;17.30;99.90
1766;DHT22;880;52.452;8.656;2023-05-07T15:22:46;17.40;99.90
1766;DHT22;880;52.452;8.656;2023-05-07T15:25:13;17.60;99.90
1766;DHT22;880;52.452;8.656;2023-05-07T15:27:41;17.60;99.90
1766;DHT22;880;52.452;8.656;2023-05-07T15:30:08;17.50;99.90
1766;DHT22;880;52.452;8.656;2023-05-07T15:32:37;17.50;99.90
1766;DHT22;880;52.452;8.656;2023-05-07T15:35:05;17.30;99.90
1766;DHT22;880;52.452;8.656;2023-05-07T15:37:33;17.30;99.90
1766;DHT22;880;52.452;8.656;2023-05-07T15:40:00;17.20;99.90
1766;DHT22;880;52.452;8.656;2023-05-07T15:42:33;17.10;99.90
1766;DHT22;880;52.452;8.656;2023-05-07T15:45:00;17.10;99.90
1766;DHT22;880;52.452;8.656;2023-05-07T15:47:27;17.10;99.90
1766;DHT22;880;52.452;8.656;2023-05-07T15:49:54;17.10;99.90
1766;DHT22;880;52.452;8.656;2023-05-07T15:52:21;17.10;99.90
1766;DHT22;880;52.452;8.656;2023-05-07T15:54:48;16.90;99.90
1766;DHT22;880;52.452;8.656;2023-05-07T15:57:15;16.80;99.90
1766;DHT22;880;52.452;8.656;2023-05-07T15:59:42;16.70;99.90
1766;DHT22;880;52.452;8.656;2023-05-07T16:02:09;16.70;99.90
1766;DHT22;880;52.452;8.656;2023-05-07T16:04:36;16.70;99.90
1766;DHT22;880;52.452;8.656;2023-05-07T16:07:04;16.60;99.90
1766;DHT22;880;52.452;8.656;2023-05-07T16:09:31;16.60;99.90
1766;DHT22;880;52.452;8.656;2023-05-07T16:11:59;16.60;99.90
1766;DHT22;880;52.452;8.656;2023-05-07T16:14:26;16.60;99.90
1766;DHT22;880;52.452;8.656;2023-05-07T16:16:54;16.60;99.90
1766;DHT22;880;52.452;8.656;2023-05-07T16:19:22;16.50;99.90
1766;DHT22;880;52.452;8.656;2023-05-07T16:21:49;16.50;99.90
1766;DHT22;880;52.452;8.656;2023-05-07T16:24:16;16.40;99.90
1766;DHT22;880;52.452;8.656;2023-05-07T16:26:43;16.40;99.90
1766;DHT22;880;52.452;8.656;2023-05-07T16:29:10;16.40;99.90
1766;DHT22;880;52.452;8.656;2023-05-07T16:31:39;16.30;99.90
1766;DHT22;880;52.452;8.656;2023-05-07T16:34:06;16.20;99.90
1766;DHT22;880;52.452;8.656;2023-05-07T16:36:33;16.10;99.90
1766;DHT22;880;52.452;8.656;2023-05-07T16:39:00;16.00;99.90
1766;DHT22;880;52.452;8.656;2023-05-07T16:41:27;15.90;99.90
1766;DHT22;880;52.452;8.656;2023-05-07T16:43:54;15.80;99.90